Time;durP1;ratioP1;P1;durP2;ratioP2;P2;SDS_P1;SDS_P2;PMS_P1;PMS_P2;Temp;Humidity;BMP_temperature;BMP_pressure;BME280_temperature;BME280_humidity;BME280_pressure;Samples;Min_cycle;Max_cycle;Signal;HPM_P1;HPM_P2
2021/12/04 00:01:56;;;;;;;26.43;17.33;;;2.10;99.90;;;;;;5073777;28;20200;-55
2021/12/04 00:04:28;;;;;;;24.73;17.27;;;2.10;99.90;;;;;;5073193;28;20209;-54
2021/12/04 00:06:56;;;;;;;24.80;17.80;;;2.10;99.90;;;;;;5073307;28;20586;-54
2021/12/04 00:09:26;;;;;;;24.30;16.40;;;2.00;99.90;;;;;;5073185;28;20228;-54
2021/12/04 00:11:56;;;;;;;27.77;17.93;;;2.10;99.90;;;;;;5072583;28;20196;-54
2021/12/04 00:14:24;;;;;;;21.03;16.67;;;2.00;99.90;;;;;;5073153;28;20696;-54
2021/12/04 00:16:56;;;;;;;24.97;17.30;;;2.10;99.90;;;;;;5073008;28;20229;-54
2021/12/04 00:19:31;;;;;;;26.50;17.97;;;2.10;99.90;;;;;;5072999;28;20227;-54
2021/12/04 00:22:00;;;;;;;21.13;16.57;;;2.10;99.90;;;;;;5072553;28;20221;-53
2021/12/04 00:24:30;;;;;;;21.60;16.70;;;2.10;99.90;;;;;;5073177;28;20638;-54
2021/12/04 00:26:59;;;;;;;26.33;17.50;;;2.10;99.90;;;;;;5072662;28;20255;-54
2021/12/04 00:29:27;;;;;;;24.17;17.33;;;2.10;99.90;;;;;;5070483;28;20263;-52
2021/12/04 00:31:59;;;;;;;25.80;17.50;;;2.10;99.90;;;;;;5052866;28;20242;-55
2021/12/04 00:34:29;;;;;;;25.17;19.03;;;2.20;99.90;;;;;;5052636;28;20297;-54
2021/12/04 00:37:13;;;;;;;26.70;18.63;;;2.10;99.90;;;;;;5052342;28;20600;-54
2021/12/04 00:50:44;;;;;;;26.60;19.73;;;2.10;99.90;;;;;;5052582;28;20235;-55
2021/12/04 00:53:12;;;;;;;29.67;21.17;;;2.10;99.90;;;;;;5063686;28;20246;-55
2021/12/04 00:55:42;;;;;;;27.53;21.27;;;2.10;99.90;;;;;;5072353;28;20276;-55
2021/12/04 00:58:21;;;;;;;27.13;20.80;;;2.20;99.90;;;;;;5073135;28;20689;-56
2021/12/04 01:00:58;;;;;;;27.33;21.00;;;2.20;99.90;;;;;;5082057;28;20230;-53
2021/12/04 01:03:26;;;;;;;35.97;22.93;;;2.20;99.90;;;;;;5075124;28;20207;-54
2021/12/04 01:05:55;;;;;;;30.27;20.13;;;2.20;99.90;;;;;;5071939;28;20239;-53
2021/12/04 01:08:29;;;;;;;32.40;22.00;;;2.30;99.90;;;;;;5072217;28;20240;-54
2021/12/04 01:10:58;;;;;;;31.20;21.93;;;2.20;99.90;;;;;;5072452;28;20751;-53
2021/12/04 01:13:26;;;;;;;33.00;22.07;;;2.20;99.90;;;;;;5071664;28;20239;-53
2021/12/04 01:15:54;;;;;;;32.20;21.80;;;2.20;99.90;;;;;;5071604;28;20708;-56
2021/12/04 01:18:23;;;;;;;28.87;20.83;;;2.20;99.90;;;;;;5072290;28;20204;-54
2021/12/04 01:20:51;;;;;;;28.73;20.63;;;2.30;99.90;;;;;;5071738;28;20305;-55
2021/12/04 01:23:19;;;;;;;35.60;23.57;;;2.30;99.90;;;;;;5071358;28;20206;-52
2021/12/04 01:25:47;;;;;;;29.07;20.03;;;2.30;99.90;;;;;;5071960;28;20239;-53
2021/12/04 01:28:17;;;;;;;34.37;21.97;;;2.30;99.90;;;;;;5071777;28;20236;-53
2021/12/04 01:30:45;;;;;;;32.93;22.93;;;2.20;99.90;;;;;;5062315;28;20228;-53
2021/12/04 01:33:13;;;;;;;33.97;22.43;;;2.30;99.90;;;;;;5051930;28;20218;-55
2021/12/04 01:35:41;;;;;;;31.93;21.67;;;2.30;99.90;;;;;;5051673;28;20244;-54
2021/12/04 01:38:10;;;;;;;32.00;21.80;;;2.30;99.90;;;;;;5050990;28;20247;-55
2021/12/04 01:40:38;;;;;;;29.17;20.80;;;2.30;99.90;;;;;;5050523;28;20303;-54
2021/12/04 01:43:07;;;;;;;32.47;22.23;;;2.30;99.90;;;;;;5050931;28;20237;-55
2021/12/04 01:45:37;;;;;;;29.10;20.83;;;2.30;99.90;;;;;;5051477;28;20255;-54
2021/12/04 01:48:06;;;;;;;39.77;23.47;;;2.30;99.90;;;;;;5051483;28;20206;-55
2021/12/04 01:50:35;;;;;;;37.10;23.17;;;2.30;99.90;;;;;;5052064;28;20260;-55
2021/12/04 01:53:04;;;;;;;36.23;24.00;;;2.30;99.90;;;;;;5061683;28;20652;-54
2021/12/04 01:55:34;;;;;;;30.50;20.97;;;2.30;99.90;;;;;;5071379;28;20206;-54
2021/12/04 01:58:03;;;;;;;28.93;20.27;;;2.30;99.90;;;;;;5070719;28;20697;-54
2021/12/04 02:00:34;;;;;;;35.40;22.60;;;2.30;99.90;;;;;;5070947;28;20261;-55
2021/12/04 02:03:07;;;;;;;33.23;20.87;;;2.30;99.90;;;;;;5070912;28;20208;-54
2021/12/04 02:05:37;;;;;;;32.33;22.43;;;2.30;99.90;;;;;;5070558;28;20200;-56
2021/12/04 02:08:06;;;;;;;38.90;21.57;;;2.30;99.90;;;;;;5060068;28;20229;-56
2021/12/04 02:10:35;;;;;;;42.63;23.63;;;2.30;99.90;;;;;;5050764;28;20230;-55
2021/12/04 02:13:05;;;;;;;32.97;21.63;;;2.40;99.90;;;;;;5050562;28;20267;-54
2021/12/04 02:15:33;;;;;;;33.23;21.57;;;2.40;99.90;;;;;;5051261;28;20234;-54
2021/12/04 02:18:07;;;;;;;38.23;24.70;;;2.40;99.90;;;;;;5050429;28;20213;-54
2021/12/04 02:20:37;;;;;;;42.00;25.67;;;2.30;99.90;;;;;;5053940;28;20865;-53
2021/12/04 02:23:12;;;;;;;36.80;24.83;;;2.30;99.90;;;;;;5070594;28;20893;-52
2021/12/04 02:25:41;;;;;;;37.40;23.90;;;2.30;99.90;;;;;;5071159;28;20246;-53
2021/12/04 02:28:11;;;;;;;30.97;22.07;;;2.30;99.90;;;;;;5070653;28;20610;-53
2021/12/04 02:30:43;;;;;;;33.03;22.60;;;2.30;99.90;;;;;;5070222;28;20311;-52
2021/12/04 02:33:16;;;;;;;39.13;23.57;;;2.30;99.90;;;;;;5070425;28;20281;-55
2021/12/04 02:35:48;;;;;;;45.83;25.43;;;2.30;99.90;;;;;;5072808;28;20263;-54
2021/12/04 02:38:17;;;;;;;31.57;21.80;;;2.40;99.90;;;;;;5074889;28;20282;-54
2021/12/04 02:40:46;;;;;;;33.83;22.77;;;2.40;99.90;;;;;;5074983;28;20260;-54
2021/12/04 02:43:14;;;;;;;34.60;22.30;;;2.40;99.90;;;;;;5074387;28;20245;-55
2021/12/04 02:45:44;;;;;;;36.27;23.90;;;2.40;99.90;;;;;;5075190;28;20229;-55
2021/12/04 02:48:14;;;;;;;29.87;21.87;;;2.40;99.90;;;;;;5074312;28;20197;-54
2021/12/04 02:51:05;;;;;;;33.73;21.83;;;2.40;99.90;;;;;;5074733;28;20661;-54
2021/12/04 02:53:33;;;;;;;38.90;24.73;;;2.40;99.90;;;;;;5074364;28;20629;-55
2021/12/04 02:56:01;;;;;;;40.23;24.73;;;2.40;99.90;;;;;;5074919;28;20641;-55
2021/12/04 02:58:29;;;;;;;46.77;26.90;;;2.40;99.90;;;;;;5074031;28;20725;-55
2021/12/04 03:00:57;;;;;;;35.23;22.63;;;2.40;99.90;;;;;;5074310;28;20731;-55
2021/12/04 03:03:26;;;;;;;57.10;28.17;;;2.40;99.90;;;;;;5074519;28;20231;-52
2021/12/04 03:05:56;;;;;;;43.90;24.53;;;2.50;99.90;;;;;;5074225;28;20296;-52
2021/12/04 03:08:25;;;;;;;34.43;23.40;;;2.40;99.90;;;;;;5068343;28;20247;-55
2021/12/04 03:10:54;;;;;;;36.87;24.77;;;2.40;99.90;;;;;;5054441;28;20229;-53
2021/12/04 03:13:22;;;;;;;39.17;25.23;;;2.40;99.90;;;;;;5054144;28;20249;-53
2021/12/04 03:15:57;;;;;;;40.13;23.73;;;2.40;99.90;;;;;;5053549;28;20745;-54
2021/12/04 03:18:35;;;;;;;36.20;23.57;;;2.40;99.90;;;;;;5054115;28;20681;-56
2021/12/04 03:21:07;;;;;;;63.77;31.17;;;2.40;99.90;;;;;;5060703;28;20263;-53
2021/12/04 03:23:41;;;;;;;49.00;27.60;;;2.50;99.90;;;;;;5074184;28;20255;-54
2021/12/04 03:26:10;;;;;;;55.90;26.83;;;2.50;99.90;;;;;;5074090;28;20304;-52
2021/12/04 03:28:38;;;;;;;40.40;23.63;;;2.50;99.90;;;;;;5073627;28;20241;-55
2021/12/04 03:31:11;;;;;;;43.87;25.40;;;2.50;99.90;;;;;;5073870;28;20260;-55
2021/12/04 03:41:57;;;;;;;41.40;24.17;;;2.50;99.90;;;;;;5073835;28;20249;-53
2021/12/04 03:44:25;;;;;;;53.43;27.33;;;2.50;99.90;;;;;;5073801;28;20228;-54
2021/12/04 03:46:53;;;;;;;41.07;25.17;;;2.60;99.90;;;;;;5059508;28;20358;-51
2021/12/04 03:49:21;;;;;;;35.93;23.93;;;2.50;99.90;;;;;;5057726;28;20227;-55
2021/12/04 03:51:51;;;;;;;39.23;25.13;;;2.50;99.90;;;;;;5062877;28;20215;-55
2021/12/04 03:54:19;;;;;;;40.30;25.83;;;2.60;99.90;;;;;;5076215;28;20212;-55
2021/12/04 03:56:47;;;;;;;31.97;23.87;;;2.60;99.90;;;;;;5073146;28;20251;-55
2021/12/04 03:59:15;;;;;;;38.27;24.13;;;2.60;99.90;;;;;;5073489;28;20267;-54
2021/12/04 04:01:43;;;;;;;34.10;23.57;;;2.60;99.90;;;;;;5073518;28;20251;-54
2021/12/04 04:04:11;;;;;;;35.07;24.27;;;2.60;99.90;;;;;;5073382;28;20697;-55
2021/12/04 04:06:39;;;;;;;39.73;25.57;;;2.50;99.90;;;;;;5073415;28;20209;-53
2021/12/04 04:09:09;;;;;;;45.73;26.27;;;2.60;99.90;;;;;;5073133;28;20240;-54
2021/12/04 04:11:37;;;;;;;32.57;22.73;;;2.50;99.90;;;;;;5073300;28;20240;-54
2021/12/04 04:14:06;;;;;;;34.73;23.20;;;2.50;99.90;;;;;;5072803;28;20330;-55
2021/12/04 04:16:38;;;;;;;46.57;26.90;;;2.60;99.90;;;;;;5073354;28;20288;-54
2021/12/04 04:19:07;;;;;;;33.57;23.57;;;2.50;99.90;;;;;;5072936;28;20286;-54
2021/12/04 04:21:39;;;;;;;38.10;23.63;;;2.60;99.90;;;;;;5072895;28;20234;-54
2021/12/04 04:24:10;;;;;;;32.70;22.97;;;2.60;99.90;;;;;;5073127;28;20222;-54
2021/12/04 04:26:38;;;;;;;34.03;23.47;;;2.60;99.90;;;;;;5072456;28;20248;-55
2021/12/04 04:29:07;;;;;;;25.33;19.27;;;2.60;99.90;;;;;;5073241;28;20252;-53
2021/12/04 04:31:44;;;;;;;29.60;22.43;;;2.70;99.90;;;;;;5073296;28;20247;-53
2021/12/04 04:34:13;;;;;;;30.90;22.50;;;2.60;99.90;;;;;;5072864;28;20207;-55
2021/12/04 04:36:49;;;;;;;34.03;23.23;;;2.70;99.90;;;;;;5072356;28;20307;-54
2021/12/04 04:39:40;;;;;;;38.07;24.17;;;2.60;99.90;;;;;;5072556;28;20731;-53
2021/12/04 04:59:01;;;;;;;27.10;19.37;;;2.70;99.90;;;;;;5032815;28;20313;-53
2021/12/04 05:01:57;;;;;;;22.83;17.87;;;2.60;99.90;;;;;;5071672;28;20640;-54
2021/12/04 05:12:53;;;;;;;20.10;16.33;;;2.70;99.90;;;;;;5071665;28;20274;-53
2021/12/04 05:15:34;;;;;;;22.30;16.77;;;2.70;99.90;;;;;;5072106;28;20760;-53
2021/12/04 05:18:11;;;;;;;20.73;16.33;;;2.70;99.90;;;;;;5071368;28;20260;-54
2021/12/04 05:20:40;;;;;;;27.97;18.87;;;2.70;99.90;;;;;;5071878;28;20514;-52
2021/12/04 05:23:18;;;;;;;23.23;17.03;;;2.70;99.90;;;;;;5071462;28;20307;-53
2021/12/04 05:25:46;;;;;;;21.17;16.27;;;2.80;99.90;;;;;;5071836;28;20253;-55
2021/12/04 05:28:15;;;;;;;22.43;16.40;;;2.80;99.90;;;;;;5071451;28;20236;-52
2021/12/04 05:30:43;;;;;;;22.50;17.07;;;2.80;99.90;;;;;;5071190;28;20232;-51
2021/12/04 05:33:11;;;;;;;21.67;16.10;;;2.70;99.90;;;;;;5071774;28;20216;-52
2021/12/04 05:35:39;;;;;;;19.13;15.27;;;2.60;99.90;;;;;;5071200;28;20244;-52
2021/12/04 05:38:11;;;;;;;21.23;16.13;;;2.60;99.90;;;;;;5071774;28;20214;-53
2021/12/04 05:40:40;;;;;;;19.37;16.00;;;2.60;99.90;;;;;;5071125;28;20290;-51
2021/12/04 05:43:08;;;;;;;18.07;14.60;;;2.60;99.90;;;;;;5071370;28;20314;-52
2021/12/04 05:45:41;;;;;;;16.47;13.97;;;2.60;99.90;;;;;;5068592;28;20225;-53
2021/12/04 05:48:22;;;;;;;15.27;13.37;;;2.60;99.90;;;;;;5051764;28;20277;-54
2021/12/04 05:51:14;;;;;;;18.33;14.90;;;2.60;99.90;;;;;;5051560;28;20231;-53
2021/12/04 05:53:57;;;;;;;14.37;12.83;;;2.60;99.90;;;;;;5067484;28;20235;-53
2021/12/04 05:56:27;;;;;;;14.77;12.70;;;2.60;99.90;;;;;;5071417;28;20299;-53
2021/12/04 05:58:55;;;;;;;13.80;12.30;;;2.60;99.90;;;;;;5071046;28;20258;-54
2021/12/04 06:01:26;;;;;;;16.13;13.67;;;2.60;99.90;;;;;;5071395;28;20653;-52
2021/12/04 06:03:54;;;;;;;14.30;12.23;;;2.70;99.90;;;;;;5071172;28;20208;-52
2021/12/04 06:06:22;;;;;;;17.53;12.70;;;2.70;99.90;;;;;;5071460;28;20243;-52
2021/12/04 06:08:50;;;;;;;16.93;13.70;;;2.70;99.90;;;;;;5071072;28;20197;-53
2021/12/04 06:11:19;;;;;;;15.33;13.20;;;2.70;99.90;;;;;;5070974;28;20259;-51
2021/12/04 06:13:47;;;;;;;13.00;11.53;;;2.60;99.90;;;;;;5062359;28;20874;-54
2021/12/04 06:16:16;;;;;;;16.57;13.17;;;2.60;99.90;;;;;;5051311;28;20216;-54
2021/12/04 06:18:47;;;;;;;14.70;12.90;;;2.70;99.90;;;;;;5050619;28;20312;-54
2021/12/04 06:24:05;;;;;;;15.33;13.77;;;2.70;99.90;;;;;;5050282;28;20653;-52
2021/12/04 06:26:33;;;;;;;16.07;14.47;;;2.60;99.90;;;;;;5049564;28;20244;-53
2021/12/04 06:29:02;;;;;;;19.93;17.83;;;2.60;99.90;;;;;;5051956;28;20694;-54
2021/12/04 06:31:31;;;;;;;14.27;12.77;;;2.70;99.90;;;;;;5051046;28;20206;-55
2021/12/04 06:34:01;;;;;;;13.07;11.07;;;2.70;99.90;;;;;;5050338;28;20198;-56
2021/12/04 06:36:30;;;;;;;13.60;12.23;;;2.70;99.90;;;;;;5050030;28;20205;-54
2021/12/04 06:38:58;;;;;;;12.27;10.97;;;2.70;99.90;;;;;;5050136;28;20225;-54
2021/12/04 06:41:26;;;;;;;11.63;10.43;;;2.70;99.90;;;;;;5058840;28;20639;-56
2021/12/04 06:43:55;;;;;;;11.40;10.30;;;2.70;99.90;;;;;;5057005;28;20588;-55
2021/12/04 06:46:24;;;;;;;10.70;9.60;;;2.80;99.90;;;;;;5060306;28;20609;-54
2021/12/04 06:49:02;;;;;;;13.30;11.10;;;2.80;99.90;;;;;;5070559;28;20236;-54
2021/12/04 06:51:33;;;;;;;11.83;10.70;;;2.80;99.90;;;;;;5070489;28;20246;-54
2021/12/04 06:54:05;;;;;;;11.73;10.53;;;2.80;99.90;;;;;;5070865;28;20240;-55
2021/12/04 06:56:35;;;;;;;11.70;10.50;;;2.80;99.90;;;;;;5064015;28;20244;-55
2021/12/04 06:59:07;;;;;;;14.00;11.27;;;2.80;99.90;;;;;;5050645;28;20225;-54
2021/12/04 07:01:36;;;;;;;11.77;10.57;;;2.80;99.90;;;;;;5049953;28;20215;-55
2021/12/04 07:04:06;;;;;;;11.63;10.43;;;2.70;99.90;;;;;;5050960;28;20233;-54
2021/12/04 07:06:35;;;;;;;11.37;10.27;;;2.70;99.90;;;;;;5050397;28;20252;-54
2021/12/04 07:09:04;;;;;;;10.27;9.27;;;2.70;99.90;;;;;;5068520;28;20222;-54
2021/12/04 07:11:33;;;;;;;10.80;9.80;;;2.80;99.90;;;;;;5064228;28;20213;-54
2021/12/04 07:14:01;;;;;;;11.50;10.40;;;2.80;99.90;;;;;;5049588;28;20209;-55
2021/12/04 07:16:29;;;;;;;11.07;9.97;;;2.80;99.90;;;;;;5050125;28;20736;-54
2021/12/04 07:18:57;;;;;;;12.20;10.90;;;2.80;99.90;;;;;;5049997;28;20240;-54
2021/12/04 07:21:25;;;;;;;11.47;10.33;;;2.70;99.90;;;;;;5062062;28;20232;-54
2021/12/04 07:23:55;;;;;;;10.53;9.53;;;2.70;99.90;;;;;;5073832;28;20637;-55
2021/12/04 07:26:23;;;;;;;11.10;9.77;;;2.70;99.90;;;;;;5074080;28;20232;-54
2021/12/04 07:28:51;;;;;;;11.97;10.73;;;2.80;99.90;;;;;;5073872;28;20245;-53
2021/12/04 07:31:19;;;;;;;13.00;11.67;;;2.80;99.90;;;;;;5073874;28;20267;-53
2021/12/04 07:33:49;;;;;;;11.80;10.27;;;2.80;99.90;;;;;;5074117;28;20216;-53
2021/12/04 07:36:17;;;;;;;10.40;9.40;;;2.90;99.90;;;;;;5073655;28;20214;-55
2021/12/04 07:38:45;;;;;;;11.50;10.30;;;2.90;99.90;;;;;;5073748;28;20240;-54
2021/12/04 07:41:15;;;;;;;11.50;10.33;;;2.90;99.90;;;;;;5073309;28;20279;-54
2021/12/04 07:43:43;;;;;;;13.43;10.07;;;2.90;99.90;;;;;;5073735;28;20286;-54
2021/12/04 07:46:12;;;;;;;11.57;10.47;;;2.90;99.90;;;;;;5073506;28;20232;-54
2021/12/04 07:48:40;;;;;;;11.27;10.17;;;2.90;99.90;;;;;;5073588;28;20292;-54
2021/12/04 07:51:08;;;;;;;11.20;10.10;;;3.00;99.90;;;;;;5069564;28;20655;-53
2021/12/04 07:53:36;;;;;;;10.70;9.70;;;2.90;99.90;;;;;;5068233;28;20583;-55
2021/12/04 07:56:06;;;;;;;12.13;10.90;;;3.00;99.90;;;;;;5053421;28;20246;-54
2021/12/04 07:58:36;;;;;;;12.20;10.90;;;3.00;99.90;;;;;;5053263;28;20292;-55
2021/12/04 08:01:04;;;;;;;14.20;11.33;;;3.00;99.90;;;;;;5053530;28;20264;-54
2021/12/04 08:03:32;;;;;;;12.23;11.00;;;2.90;99.90;;;;;;5052758;28;20259;-54
2021/12/04 08:06:00;;;;;;;12.53;10.80;;;3.00;99.90;;;;;;5053226;28;20251;-54
2021/12/04 08:08:28;;;;;;;12.70;11.40;;;3.00;99.90;;;;;;5067514;28;20225;-55
2021/12/04 08:10:57;;;;;;;13.70;11.80;;;3.00;99.90;;;;;;5072828;28;20643;-55
2021/12/04 08:13:25;;;;;;;13.97;12.67;;;3.00;99.90;;;;;;5062058;28;20241;-56
2021/12/04 08:15:55;;;;;;;17.80;12.77;;;3.00;99.90;;;;;;5053009;28;20749;-55
2021/12/04 08:18:23;;;;;;;16.20;13.30;;;3.10;99.90;;;;;;5053186;28;20672;-54
2021/12/04 08:20:52;;;;;;;14.57;12.07;;;3.00;99.90;;;;;;5051704;28;20297;-55
2021/12/04 08:23:20;;;;;;;17.40;13.33;;;3.10;99.90;;;;;;5060596;28;20224;-54
2021/12/04 08:25:50;;;;;;;13.80;11.93;;;3.00;99.90;;;;;;5062564;28;20209;-54
2021/12/04 08:28:18;;;;;;;17.40;12.77;;;3.10;99.90;;;;;;5067158;28;20307;-54
2021/12/04 08:30:46;;;;;;;15.17;12.57;;;3.10;99.90;;;;;;5071527;28;20241;-55
2021/12/04 08:33:15;;;;;;;15.23;11.37;;;3.10;99.90;;;;;;5059845;28;20194;-53
2021/12/04 08:35:44;;;;;;;15.57;10.43;;;3.10;99.90;;;;;;5067436;28;20201;-56
2021/12/04 08:38:14;;;;;;;12.73;11.43;;;3.10;99.90;;;;;;5072191;28;20578;-55
2021/12/04 08:40:43;;;;;;;10.63;9.63;;;3.10;99.90;;;;;;5072134;28;20316;-55
2021/12/04 08:43:11;;;;;;;12.27;10.97;;;3.20;99.90;;;;;;5070981;28;20205;-55
2021/12/04 08:45:41;;;;;;;13.93;11.80;;;3.20;99.90;;;;;;5070494;28;20240;-55
2021/12/04 08:48:12;;;;;;;12.07;10.83;;;3.20;99.90;;;;;;5071747;28;20292;-54
2021/12/04 08:50:41;;;;;;;13.47;10.90;;;3.10;99.90;;;;;;5071707;28;20221;-55
2021/12/04 08:53:10;;;;;;;14.97;11.97;;;3.20;99.90;;;;;;5071863;28;20205;-54
2021/12/04 08:55:42;;;;;;;13.20;11.80;;;3.20;99.90;;;;;;5071500;28;20237;-54
2021/12/04 08:58:11;;;;;;;14.30;11.90;;;3.30;99.90;;;;;;5071585;28;20228;-56
2021/12/04 09:00:46;;;;;;;14.47;12.37;;;3.30;99.90;;;;;;5071117;28;20664;-55
2021/12/04 09:03:15;;;;;;;14.33;12.13;;;3.20;99.90;;;;;;5071545;28;20725;-55
2021/12/04 09:05:45;;;;;;;11.70;10.50;;;3.20;99.90;;;;;;5060723;28;20204;-55
2021/12/04 09:08:14;;;;;;;12.77;11.50;;;3.30;99.90;;;;;;5071706;28;20239;-55
2021/12/04 09:10:46;;;;;;;14.80;11.67;;;3.30;99.90;;;;;;5071750;28;20229;-55
2021/12/04 09:13:16;;;;;;;14.17;11.90;;;3.30;99.90;;;;;;5070882;28;20279;-55
2021/12/04 09:15:47;;;;;;;12.33;11.13;;;3.30;99.90;;;;;;5071661;28;20208;-54
2021/12/04 09:18:17;;;;;;;12.67;11.40;;;3.30;99.90;;;;;;5071540;28;20217;-55
2021/12/04 09:20:50;;;;;;;12.27;10.97;;;3.30;99.90;;;;;;5069559;28;20583;-55
2021/12/04 09:23:22;;;;;;;11.97;10.67;;;3.30;99.90;;;;;;5071592;28;20205;-55
2021/12/04 09:25:53;;;;;;;11.87;10.67;;;3.30;99.90;;;;;;5071082;28;20219;-54
2021/12/04 09:28:25;;;;;;;14.73;11.97;;;3.40;99.90;;;;;;5063805;28;20204;-54
2021/12/04 09:34:09;;;;;;;13.13;11.63;;;3.40;99.90;;;;;;5078881;28;20256;-55
2021/12/04 09:36:58;;;;;;;12.60;11.37;;;3.40;99.90;;;;;;5085819;28;20206;-55
2021/12/04 10:02:09;;;;;;;15.90;11.87;;;3.50;99.90;;;;;;5044943;28;20339;-55
2021/12/04 10:04:56;;;;;;;16.80;12.80;;;3.50;99.90;;;;;;5070636;28;20213;-55
2021/12/04 10:16:14;;;;;;;17.30;14.53;;;3.50;99.90;;;;;;5070749;28;20250;-55
2021/12/04 10:21:53;;;;;;;19.53;13.27;;;3.60;99.90;;;;;;5058680;28;20719;-55
2021/12/04 10:33:11;;;;;;;33.10;15.23;;;3.70;99.90;;;;;;5069950;28;20215;-60
2021/12/04 10:35:41;;;;;;;18.80;14.40;;;3.70;99.90;;;;;;5070807;28;20211;-55
2021/12/04 10:38:18;;;;;;;28.85;17.90;;;3.70;99.90;;;;;;5067270;28;21016;-57
2021/12/04 10:40:49;;;;;;;27.10;14.83;;;3.90;99.90;;;;;;5070260;28;20228;-55
2021/12/04 10:43:22;;;;;;;24.37;14.10;;;3.90;99.90;;;;;;5070058;28;20227;-55
2021/12/04 10:45:54;;;;;;;36.23;15.40;;;3.90;99.90;;;;;;5069581;28;20231;-55
2021/12/04 10:48:28;;;;;;;28.30;14.70;;;3.80;99.90;;;;;;5070679;28;20213;-55
2021/12/04 10:51:07;;;;;;;29.30;14.10;;;3.70;99.90;;;;;;5066016;28;20607;-56
2021/12/04 10:53:46;;;;;;;29.43;14.23;;;3.80;99.90;;;;;;5068118;28;20212;-55
2021/12/04 10:56:26;;;;;;;60.17;18.53;;;3.80;99.90;;;;;;5071240;28;20306;-55
2021/12/04 10:59:18;;;;;;;24.03;13.53;;;3.70;99.90;;;;;;5074385;28;20208;-54
2021/12/04 11:01:57;;;;;;;52.03;19.40;;;3.80;99.90;;;;;;5070781;28;20224;-54
2021/12/04 11:04:36;;;;;;;26.60;13.83;;;3.80;99.90;;;;;;5073984;28;20721;-55
2021/12/04 11:07:36;;;;;;;38.47;16.65;;;3.90;99.90;;;;;;5069860;28;20437;-56
2021/12/04 11:18:47;;;;;;;22.67;13.20;;;3.90;99.90;;;;;;5073447;28;20216;-55
2021/12/04 11:38:33;;;;;;;23.90;13.30;;;4.00;99.90;;;;;;5016986;28;20221;-53
2021/12/04 11:41:17;;;;;;;18.73;12.13;;;4.00;99.90;;;;;;5067589;28;20706;-54
2021/12/04 11:44:00;;;;;;;22.33;12.63;;;4.00;99.90;;;;;;5057089;28;20212;-54
2021/12/04 11:46:42;;;;;;;19.10;12.10;;;4.00;99.90;;;;;;5071552;28;20204;-53
2021/12/04 11:49:26;;;;;;;29.27;12.40;;;4.10;99.90;;;;;;5071477;28;20625;-53
2021/12/04 11:52:01;;;;;;;25.27;14.77;;;4.20;99.90;;;;;;5068789;28;20206;-56
2021/12/04 11:54:34;;;;;;;26.53;14.50;;;4.10;99.90;;;;;;5063764;28;20290;-53
2021/12/04 11:57:07;;;;;;;24.73;14.67;;;4.10;99.90;;;;;;5073039;28;20216;-54
2021/12/04 11:59:40;;;;;;;23.87;13.77;;;4.00;99.90;;;;;;5055853;28;20290;-54
2021/12/04 12:02:11;;;;;;;20.90;12.77;;;4.00;99.90;;;;;;5052322;28;20271;-54
2021/12/04 12:04:45;;;;;;;16.50;11.67;;;4.00;99.90;;;;;;5051426;28;20293;-55
2021/12/04 12:07:16;;;;;;;20.53;11.73;;;4.00;99.90;;;;;;5052116;28;20613;-53
2021/12/04 12:09:47;;;;;;;36.93;26.43;;;4.10;99.90;;;;;;5069842;28;20240;-54
2021/12/04 12:12:17;;;;;;;20.73;15.43;;;4.20;99.90;;;;;;5067692;28;20573;-52
2021/12/04 12:14:50;;;;;;;43.80;24.43;;;4.30;99.90;;;;;;5053192;28;20208;-52
2021/12/04 12:17:30;;;;;;;10.70;7.50;;;4.30;99.90;;;;;;5052880;28;20219;-52
2021/12/04 12:20:00;;;;;;;12.07;8.63;;;4.40;99.90;;;;;;5049396;28;20916;-52
2021/12/04 12:22:40;;;;;;;9.47;7.03;;;4.40;99.90;;;;;;5070438;28;20231;-56
2021/12/04 12:25:24;;;;;;;11.43;7.37;;;4.50;99.90;;;;;;5072053;28;20627;-52
2021/12/04 12:33:39;;;;;;;8.50;7.00;;;4.30;99.90;;;;;;5079666;28;20213;-55
2021/12/04 12:36:12;;;;;;;13.03;7.10;;;4.20;99.90;;;;;;5082017;28;20307;-54
2021/12/04 12:38:48;;;;;;;9.70;7.40;;;4.30;99.90;;;;;;5076311;28;20213;-56
2021/12/04 12:41:31;;;;;;;7.43;6.23;;;4.30;99.90;;;;;;5072203;28;20609;-55
2021/12/04 12:44:09;;;;;;;11.20;7.67;;;4.30;99.90;;;;;;5072570;28;20225;-54
2021/12/04 12:46:42;;;;;;;11.40;7.83;;;4.30;99.90;;;;;;5069719;28;20242;-55
2021/12/04 12:49:25;;;;;;;12.40;9.33;;;4.30;99.90;;;;;;5070960;28;20244;-53
2021/12/04 12:52:04;;;;;;;13.23;8.83;;;4.30;99.90;;;;;;5065991;28;20198;-53
2021/12/04 12:54:36;;;;;;;11.37;8.77;;;4.30;99.90;;;;;;5068449;28;20212;-51
2021/12/04 12:57:09;;;;;;;9.97;7.87;;;4.30;99.90;;;;;;5066535;28;20207;-53
2021/12/04 13:11:35;;;;;;;9.13;7.60;;;4.40;99.90;;;;;;5067447;28;20265;-52
2021/12/04 13:14:12;;;;;;;9.53;7.70;;;4.40;99.90;;;;;;5070970;28;20224;-54
2021/12/04 13:16:43;;;;;;;10.47;8.57;;;4.50;99.90;;;;;;5066209;28;20600;-54
2021/12/04 13:19:16;;;;;;;13.10;9.63;;;4.50;99.90;;;;;;5068912;28;20289;-53
2021/12/04 13:21:49;;;;;;;15.10;11.60;;;4.40;99.90;;;;;;5067044;28;20208;-53
2021/12/04 13:24:28;;;;;;;14.83;13.33;;;4.40;99.90;;;;;;5062817;28;20204;-53
2021/12/04 13:26:58;;;;;;;18.20;14.30;;;4.40;99.90;;;;;;5066745;28;20235;-52
2021/12/04 13:29:28;;;;;;;21.17;17.20;;;4.40;99.90;;;;;;5071039;28;20742;-53
2021/12/04 13:31:59;;;;;;;39.43;32.10;;;4.40;99.90;;;;;;5070541;28;20600;-54
2021/12/04 13:34:30;;;;;;;17.67;14.50;;;4.40;99.90;;;;;;5070880;28;20314;-53
2021/12/04 13:37:01;;;;;;;10.10;8.97;;;4.50;99.90;;;;;;5067513;28;20268;-53
2021/12/04 13:39:32;;;;;;;10.03;8.87;;;4.50;99.90;;;;;;5070618;28;20228;-55
2021/12/04 13:42:04;;;;;;;8.73;7.60;;;4.60;99.90;;;;;;5070375;28;20787;-57
2021/12/04 13:44:35;;;;;;;9.33;7.67;;;4.50;99.90;;;;;;5070677;28;20659;-52
2021/12/04 13:47:07;;;;;;;7.87;7.07;;;4.60;99.90;;;;;;5070207;28;20215;-53
2021/12/04 13:49:40;;;;;;;8.63;7.70;;;4.60;99.90;;;;;;5070480;28;20228;-56
2021/12/04 13:52:12;;;;;;;8.23;7.13;;;4.60;99.90;;;;;;5070174;28;20286;-55
2021/12/04 13:54:47;;;;;;;5.20;4.70;;;4.60;99.90;;;;;;5070152;28;20270;-54
2021/12/04 13:57:17;;;;;;;5.90;4.50;;;4.60;99.90;;;;;;5069163;28;20212;-53
2021/12/04 13:59:47;;;;;;;7.20;6.50;;;4.70;99.90;;;;;;5066181;28;20280;-54
2021/12/04 14:02:23;;;;;;;4.90;4.23;;;4.60;99.90;;;;;;5069829;28;20258;-54
2021/12/04 14:04:57;;;;;;;6.97;5.17;;;4.70;99.90;;;;;;5070541;28;20300;-55
2021/12/04 14:07:30;;;;;;;7.63;6.83;;;4.70;99.90;;;;;;5067983;28;20219;-55
2021/12/04 14:10:00;;;;;;;6.37;5.60;;;4.60;99.90;;;;;;5070567;28;20720;-53
2021/12/04 14:12:32;;;;;;;8.33;6.20;;;4.50;99.90;;;;;;5069858;28;20212;-53
2021/12/04 14:15:09;;;;;;;5.60;5.07;;;4.50;99.90;;;;;;5065497;28;20824;-54
2021/12/04 14:17:38;;;;;;;5.57;3.90;;;4.60;99.90;;;;;;5070755;28;20203;-55
2021/12/04 14:20:10;;;;;;;5.70;4.50;;;4.60;99.90;;;;;;5069704;28;20607;-52
2021/12/04 14:22:47;;;;;;;5.27;4.73;;;4.70;99.90;;;;;;5067900;28;20638;-54
2021/12/04 14:25:19;;;;;;;6.17;5.43;;;4.70;99.90;;;;;;5070474;28;20584;-55
2021/12/04 14:27:49;;;;;;;5.00;4.50;;;4.70;99.90;;;;;;5069344;28;20234;-56
2021/12/04 14:30:21;;;;;;;9.83;6.40;;;4.70;99.90;;;;;;5072691;28;20321;-54
2021/12/04 14:32:53;;;;;;;9.47;6.70;;;4.60;99.90;;;;;;5074490;28;20204;-55
2021/12/04 14:35:31;;;;;;;7.63;6.47;;;4.60;99.90;;;;;;5074457;28;20208;-55
2021/12/04 14:38:02;;;;;;;8.83;6.37;;;4.60;99.90;;;;;;5073571;28;20213;-54
2021/12/04 14:40:35;;;;;;;8.77;7.13;;;4.60;99.90;;;;;;5065852;28;20282;-53
2021/12/04 14:43:05;;;;;;;11.43;7.30;;;4.70;99.90;;;;;;5071516;28;20677;-54
2021/12/04 14:45:37;;;;;;;8.93;6.73;;;4.70;99.90;;;;;;5074068;28;20294;-53
2021/12/04 14:48:08;;;;;;;8.30;6.90;;;4.70;99.90;;;;;;5073858;28;20832;-53
2021/12/04 14:50:40;;;;;;;7.43;5.73;;;4.60;99.90;;;;;;5073743;28;20601;-55
2021/12/04 14:53:13;;;;;;;8.50;5.93;;;4.70;99.90;;;;;;5067531;28;20204;-54
2021/12/04 14:55:45;;;;;;;7.53;5.90;;;4.60;99.90;;;;;;5073986;28;20278;-55
2021/12/04 14:58:17;;;;;;;7.17;6.13;;;4.60;99.90;;;;;;5075396;28;20219;-54
2021/12/04 15:00:48;;;;;;;7.47;6.20;;;4.60;99.90;;;;;;5061211;28;20275;-55
2021/12/04 15:03:18;;;;;;;8.13;6.83;;;4.60;99.90;;;;;;5070150;28;20248;-55
2021/12/04 15:05:49;;;;;;;8.43;6.10;;;4.70;99.90;;;;;;5071608;28;20216;-55
2021/12/04 15:08:22;;;;;;;7.77;6.67;;;4.70;99.90;;;;;;5073621;28;20277;-54
2021/12/04 15:10:59;;;;;;;7.30;6.50;;;4.60;99.90;;;;;;5074033;28;20230;-55
2021/12/04 15:13:30;;;;;;;7.90;7.10;;;4.60;99.90;;;;;;5070121;28;20210;-54
2021/12/04 15:16:03;;;;;;;9.03;7.67;;;4.50;99.90;;;;;;5073890;28;20216;-55
2021/12/04 15:18:33;;;;;;;11.37;7.73;;;4.50;99.90;;;;;;5073798;28;20235;-54
2021/12/04 15:21:10;;;;;;;8.20;7.27;;;4.40;99.90;;;;;;5073262;28;20693;-54